Magdalena — V2PG8 — position and weather

sailwx.info

Track history (hours):
 
Tides and Currents Weather Stations Pressure Air Temp Water Temp Dewpoint Dewpoint Depression Visibility Wind Speed Wind Dir Waves Ship Positions

Magdalena

Last reported at 2018-Jul-15 16:51 UTC. Time now 2018-Jul-15 21:04 UTC.
Position N 38°40' W 009°04'.

Length 88 m; draft 4.8 m.

Type: Cargo ship. MMSI: 304682000.

Date/timePositionNaut miles runAvg speedWind from/ knotsBaromVisibWave heightAir tempDewpointWater temp
2018-Jul-15 16:51N 38°40' W 009°04'0 0.0
2018-Jul-15 14:21N 38°40' W 009°04'0 0.0
2018-Jul-15 13:35N 38°40' W 009°04'0 0.3
2018-Jul-15 13:28N 38°40' W 009°04'2 5.0
2018-Jul-15 13:00N 38°41' W 009°07'510.0
2018-Jul-15 12:30N 38°41' W 009°14'5 9.5
2018-Jul-15 12:00N 38°40' W 009°19'4 8.1
2018-Jul-15 11:30N 38°37' W 009°23'3 6.7
2018-Jul-15 11:00N 38°40' W 009°25'0 0.2
2018-Jul-15 10:25N 38°40' W 009°24'0 0.0
2018-Jul-15 09:58N 38°40' W 009°25'0 0.0
2018-Jul-15 08:55N 38°40' W 009°24'0 0.0
2018-Jul-15 08:25N 38°40' W 009°24'0 0.0
2018-Jul-15 07:49N 38°40' W 009°24'0 0.1
2018-Jul-15 07:07N 38°40' W 009°24'0 0.0
2018-Jul-15 06:52N 38°40' W 009°24'0 0.0
2018-Jul-15 06:22N 38°40' W 009°24'0 0.0
2018-Jul-15 05:58N 38°40' W 009°24'0 0.0
2018-Jul-15 05:25N 38°40' W 009°24'0 0.0
2018-Jul-15 04:58N 38°40' W 009°24'0 0.0
2018-Jul-15 04:28N 38°40' W 009°24'0 0.0
2018-Jul-15 03:58N 38°40' W 009°24'0 0.0
2018-Jul-15 03:16N 38°40' W 009°24'0 0.0
2018-Jul-15 02:52N 38°40' W 009°24'0 0.0
2018-Jul-15 00:55N 38°40' W 009°24'0 0.1
2018-Jul-15 00:19N 38°40' W 009°24'0 0.0
2018-Jul-14 23:49N 38°40' W 009°24'0 0.0
2018-Jul-14 23:22N 38°40' W 009°24'0 0.0
2018-Jul-14 21:24N 38°40' W 009°25'0 0.0
2018-Jul-14 20:57N 38°40' W 009°25'0 0.1
2018-Jul-14 20:30N 38°40' W 009°25'0 0.0
2018-Jul-14 19:48N 38°40' W 009°25'0 0.1
2018-Jul-14 19:30N 38°40' W 009°25'0 0.1
2018-Jul-14 19:00N 38°40' W 009°25'0 0.1
2018-Jul-14 18:30N 38°40' W 009°24'0 0.1
2018-Jul-14 18:00N 38°40' W 009°24'0 0.0
2018-Jul-14 17:21N 38°40' W 009°24'0 0.0
2018-Jul-14 16:54N 38°40' W 009°24'0 0.0
2018-Jul-14 16:21N 38°40' W 009°24'0 0.0
2018-Jul-14 15:51N 38°40' W 009°24'0 0.0
2018-Jul-14 14:33N 38°40' W 009°24'0 0.0
2018-Jul-14 14:06N 38°40' W 009°24'0 0.0
2018-Jul-14 13:21N 38°40' W 009°24'0 0.0
2018-Jul-14 13:00N 38°40' W 009°25'0 0.0
2018-Jul-14 12:30N 38°40' W 009°25'0 0.0
2018-Jul-14 12:00N 38°40' W 009°25'0 0.1
2018-Jul-14 11:27N 38°40' W 009°24'0 0.0
2018-Jul-14 10:03N 38°40' W 009°24'0 0.1
2018-Jul-14 10:00N 38°40' W 009°25'0 0.1
2018-Jul-14 09:24N 38°40' W 009°25'0 0.0
2018-Jul-14 08:57N 38°40' W 009°25'0 0.1
2018-Jul-14 08:21N 38°40' W 009°25'0 0.0
2018-Jul-14 08:00N 38°40' W 009°25'0 0.0
2018-Jul-14 07:27N 38°40' W 009°25'0 0.0
2018-Jul-14 07:00N 38°40' W 009°25'0 0.1
2018-Jul-14 06:30N 38°40' W 009°25'0 0.1
2018-Jul-14 05:54N 38°40' W 009°24'0 0.0
2018-Jul-14 04:54N 38°40' W 009°24'0 0.0
2018-Jul-14 04:15N 38°40' W 009°24'0 0.0
2018-Jul-14 02:54N 38°40' W 009°24'0 0.0
2018-Jul-14 01:45N 38°40' W 009°24'0 0.0
2018-Jul-14 00:27N 38°40' W 009°24'0 0.0
2018-Jul-13 23:57N 38°40' W 009°25'0 0.1
2018-Jul-13 23:30N 38°40' W 009°24'0 0.0
2018-Jul-13 21:00N 38°40' W 009°25'0 0.0
2018-Jul-13 20:30N 38°40' W 009°25'0 0.1
2018-Jul-13 20:00N 38°40' W 009°25'0 0.1
2018-Jul-13 19:24N 38°40' W 009°25'0 0.1
2018-Jul-13 19:00N 38°40' W 009°24'0 0.0
2018-Jul-13 18:30N 38°40' W 009°24'0 0.0
2018-Jul-13 17:59N 38°40' W 009°24'0 0.0
2018-Jul-13 17:29N 38°40' W 009°24'0 0.0
2018-Jul-13 16:59N 38°40' W 009°24'0 0.0
2018-Jul-13 16:26N 38°40' W 009°24'0 0.0
2018-Jul-13 15:56N 38°40' W 009°24'0 0.0
2018-Jul-13 15:14N 38°40' W 009°24'0 0.0
2018-Jul-13 14:59N 38°40' W 009°24'0 0.0
2018-Jul-13 14:26N 38°40' W 009°24'0 0.0
2018-Jul-13 13:23N 38°40' W 009°24'0 0.0
2018-Jul-13 12:56N 38°40' W 009°24'0 0.0
2018-Jul-13 12:26N 38°40' W 009°24'0 0.0
2018-Jul-13 11:38N 38°40' W 009°24'0 0.1
2018-Jul-13 11:17N 38°40' W 009°24'0 0.0
2018-Jul-13 10:53N 38°40' W 009°24'0 0.0
2018-Jul-13 10:08N 38°40' W 009°24'0 0.1
2018-Jul-13 09:56N 38°40' W 009°24'0 0.1
2018-Jul-13 08:35N 38°40' W 009°25'0 0.1
2018-Jul-13 08:29N 38°40' W 009°25'0 0.1
2018-Jul-13 07:59N 38°40' W 009°25'0 0.1
2018-Jul-13 07:29N 38°40' W 009°25'0 0.0
2018-Jul-13 06:59N 38°40' W 009°25'0 0.1
2018-Jul-13 06:29N 38°40' W 009°25'0 0.0
2018-Jul-13 05:59N 38°40' W 009°24'0 0.0
2018-Jul-13 05:29N 38°40' W 009°24'0 0.1
2018-Jul-13 04:59N 38°40' W 009°24'0 0.0
2018-Jul-13 04:29N 38°40' W 009°24'0 0.0
2018-Jul-13 03:59N 38°40' W 009°24'0 0.0
2018-Jul-13 03:23N 38°40' W 009°24'0 0.0
2018-Jul-13 02:56N 38°40' W 009°24'0 0.0
2018-Jul-13 02:14N 38°40' W 009°24'0 0.0
2018-Jul-13 01:59N 38°40' W 009°24'0 0.0
2018-Jul-13 01:29N 38°40' W 009°24'0 0.0
2018-Jul-13 00:59N 38°40' W 009°24'0 0.0
2018-Jul-13 00:17N 38°40' W 009°24'0 0.0
2018-Jul-12 23:56N 38°40' W 009°24'0 0.0
2018-Jul-12 23:26N 38°40' W 009°24'0 0.1
2018-Jul-12 22:44N 38°40' W 009°24'0 0.0
2018-Jul-12 22:29N 38°40' W 009°24'0 0.0
2018-Jul-12 21:53N 38°40' W 009°24'0 0.1
2018-Jul-12 21:29N 38°40' W 009°24'0 0.1
2018-Jul-12 20:59N 38°40' W 009°24'0 0.0
2018-Jul-12 20:29N 38°40' W 009°24'0 0.0
2018-Jul-12 19:59N 38°40' W 009°24'0 0.1
2018-Jul-12 19:29N 38°40' W 009°25'0 0.0
2018-Jul-12 18:53N 38°40' W 009°25'0 0.0
2018-Jul-12 18:29N 38°40' W 009°25'0 0.0
2018-Jul-12 17:59N 38°40' W 009°25'0 0.0
2018-Jul-12 17:29N 38°40' W 009°25'0 0.0
2018-Jul-12 16:59N 38°40' W 009°25'0 0.0
2018-Jul-12 16:29N 38°40' W 009°25'0 0.0
2018-Jul-12 15:59N 38°40' W 009°24'0 0.1
2018-Jul-12 15:29N 38°40' W 009°24'0 0.0
2018-Jul-12 14:59N 38°40' W 009°24'0 0.1
2018-Jul-12 14:28N 38°40' W 009°24'0 0.1
2018-Jul-12 13:58N 38°40' W 009°24'0 0.0
2018-Jul-12 13:25N 38°40' W 009°24'0 0.0
2018-Jul-12 12:58N 38°40' W 009°24'0 0.0
2018-Jul-12 11:19N 38°40' W 009°25'0 0.1
2018-Jul-12 10:49N 38°40' W 009°25'0 0.0
2018-Jul-12 09:19N 38°40' W 009°24'0 0.1
2018-Jul-12 08:55N 38°40' W 009°24'0 0.0
2018-Jul-12 08:28N 38°40' W 009°24'0 0.2
2018-Jul-12 07:58N 38°40' W 009°25'0 0.0
2018-Jul-12 07:28N 38°40' W 009°25'0 0.0
2018-Jul-12 06:55N 38°40' W 009°25'0 0.0
2018-Jul-12 06:28N 38°40' W 009°25'0 0.0
2018-Jul-12 05:58N 38°40' W 009°25'0 0.0
2018-Jul-12 05:28N 38°40' W 009°25'0 0.0
2018-Jul-12 04:58N 38°40' W 009°25'0 0.1
2018-Jul-12 04:25N 38°40' W 009°25'0 0.0
2018-Jul-12 03:55N 38°40' W 009°25'0 0.0
2018-Jul-12 03:28N 38°40' W 009°25'0 0.0
2018-Jul-12 02:58N 38°40' W 009°24'0 0.1
2018-Jul-12 02:28N 38°40' W 009°24'0 0.0
2018-Jul-12 01:58N 38°40' W 009°24'0 0.0
2018-Jul-12 01:28N 38°40' W 009°24'0 0.0
2018-Jul-12 00:55N 38°40' W 009°24'0 0.1
2018-Jul-12 00:28N 38°40' W 009°24'0 0.0
2018-Jul-11 23:58N 38°40' W 009°24'0 0.0
2018-Jul-11 23:28N 38°40' W 009°24'0 0.0
2018-Jul-11 22:58N 38°40' W 009°24'0 0.0
2018-Jul-11 22:28N 38°40' W 009°24'0 0.0
2018-Jul-11 21:58N 38°40' W 009°24'0 0.0
2018-Jul-11 21:28N 38°40' W 009°24'0 0.0
2018-Jul-11 20:55N 38°40' W 009°24'0 0.0
2018-Jul-11 20:25N 38°40' W 009°24'0 0.1
2018-Jul-11 19:58N 38°40' W 009°24'0 0.1
2018-Jul-11 19:28N 38°40' W 009°25'0 0.0
2018-Jul-11 18:58N 38°40' W 009°25'0 0.0
2018-Jul-11 18:19N 38°40' W 009°25'0 0.0
2018-Jul-11 17:58N 38°40' W 009°25'0 0.0
2018-Jul-11 17:25N 38°40' W 009°25'0 0.0
2018-Jul-11 16:58N 38°40' W 009°25'0 0.0
2018-Jul-11 16:28N 38°40' W 009°25'0 0.0
2018-Jul-11 15:58N 38°40' W 009°24'0 0.1
2018-Jul-11 15:28N 38°40' W 009°24'0 0.0
2018-Jul-11 14:52N 38°40' W 009°24'0 0.0
2018-Jul-11 14:28N 38°40' W 009°24'0 0.2
2018-Jul-11 14:01N 38°40' W 009°25'1 2.4
2018-Jul-11 13:30N 38°40' W 009°26'4 8.6
2018-Jul-11 13:00N 38°39' W 009°31'4 8.6
2018-Jul-11 12:30N 38°37' W 009°37'4 8.4
2018-Jul-11 12:01N 38°36' W 009°42'4 8.2
2018-Jul-11 11:30N 38°35' W 009°47'4 8.2
2018-Jul-11 11:00N 38°35' W 009°52'4 8.2
2018-Jul-11 10:31N 38°35' W 009°57'4 8.3
2018-Jul-11 09:59N 38°35' W 010°03'4 9.1
2018-Jul-11 09:30N 38°39' W 010°04'5 9.1
2018-Jul-11 09:00N 38°44' W 010°05'4 8.9
2018-Jul-11 08:31N 38°48' W 010°05'4 8.9
2018-Jul-11 08:01N 38°52' W 010°06'4 8.4
2018-Jul-11 07:30N 38°57' W 010°06'4 8.5
2018-Jul-11 07:01N 39°01' W 010°05'5 9.3
2018-Jul-11 06:31N 39°06' W 010°05'5 9.3
2018-Jul-11 06:00N 39°10' W 010°05'5 9.1
2018-Jul-11 05:30N 39°15' W 010°05'4 9.0
2018-Jul-11 05:00N 39°19' W 010°05'5 8.6
2018-Jul-11 04:28N 39°24' W 010°06'4 8.9
2018-Jul-11 04:00N 39°28' W 010°06'5 8.9
2018-Jul-11 03:28N 39°33' W 010°05'4 9.0
2018-Jul-11 02:59N 39°37' W 010°05'9 9.1
2018-Jul-11 02:01N 39°46' W 010°05'5 9.1
2018-Jul-11 01:30N 39°51' W 010°05'4 8.9
2018-Jul-11 01:00N 39°55' W 010°05'4 8.7
2018-Jul-11 00:30N 39°59' W 010°05'8 8.9
2018-Jul-10 23:36N 40°07' W 010°05'1 8.7
2018-Jul-10 23:31N 40°08' W 010°05'4 8.6
2018-Jul-10 23:00N 40°13' W 010°05'4 8.7
2018-Jul-10 22:31N 40°17' W 010°05'5 8.9
2018-Jul-10 22:00N 40°21' W 010°05'  
2018-Jul-08 09:32N 48°39' W 006°01'0 8.0
2018-Jul-08 09:31N 48°40' W 006°00'5 8.1
2018-Jul-08 08:54N 48°44' W 005°57'3 8.7
2018-Jul-08 08:30N 48°47' W 005°55'6 8.5
2018-Jul-08 07:51N 48°52' W 005°51'4 8.8
2018-Jul-08 07:22N 48°55' W 005°46'4 9.3
2018-Jul-08 06:54N 48°57' W 005°41'4 9.2
2018-Jul-08 06:30N 48°59' W 005°36'5 9.5
2018-Jul-08 06:01N 49°02' W 005°30'5 9.7
2018-Jul-08 05:31N 49°04' W 005°24'6 9.6
2018-Jul-08 04:53N 49°08' W 005°16'4 9.6
2018-Jul-08 04:25N 49°10' W 005°11'4 9.5
2018-Jul-08 04:00N 49°13' W 005°06'78 8.9
2018-Jul-07 19:09N 49°59' W 003°28'2 9.5
2018-Jul-07 18:55N 49°59' W 003°24'4 9.4
2018-Jul-07 18:29N 49°59' W 003°18'5 9.2
2018-Jul-07 17:58N 49°60' W 003°11'4 8.9
2018-Jul-07 17:30N 49°60' W 003°04'4 8.9
2018-Jul-07 17:00N 49°60' W 002°57'4 8.0
2018-Jul-07 16:27N 50°02' W 002°51'22 7.6
2018-Jul-07 13:34N 50°07' W 002°18'1 7.1
2018-Jul-07 13:29N 50°07' W 002°17'6 7.3
2018-Jul-07 12:42N 50°09' W 002°09'11 7.9
2018-Jul-07 11:16N 50°12' W 001°51'5 8.9
2018-Jul-07 10:43N 50°13' W 001°44'5 9.5
2018-Jul-07 10:14N 50°14' W 001°37'2 9.8
2018-Jul-07 09:59N 50°15' W 001°34'510.2
2018-Jul-07 09:31N 50°16' W 001°26'510.6
2018-Jul-07 09:00N 50°18' W 001°18'510.9
2018-Jul-07 08:30N 50°19' W 001°10'711.3
2018-Jul-07 07:53N 50°21' W 000°60'511.3
2018-Jul-07 07:29N 50°22' W 000°53'510.6
2018-Jul-07 06:58N 50°24' W 000°45'23 9.3
2018-Jul-07 04:29N 50°30' W 000°10'4 8.1
2018-Jul-07 04:00N 50°31' W 000°04'19 7.7
2018-Jul-07 01:32N 50°37' E 000°25'1 7.9
2018-Jul-07 01:27N 50°37' E 000°26'4 8.3
2018-Jul-07 01:00N 50°38' E 000°31'4 8.7
2018-Jul-07 00:31N 50°40' E 000°37'5 9.3
2018-Jul-07 00:01N 50°43' E 000°43'5 9.7
2018-Jul-06 23:31N 50°45' E 000°50'5 9.9
2018-Jul-06 22:59N 50°48' E 000°56'16 9.6
2018-Jul-06 21:17N 50°59' E 001°17'3 9.0
2018-Jul-06 20:58N 51°00' E 001°20'6 8.6
2018-Jul-06 20:19N 51°04' E 001°27'2 5.5
2018-Jul-06 19:59N 51°05' E 001°29'4 7.4
2018-Jul-06 19:30N 51°08' E 001°33'4 7.4
2018-Jul-06 19:00N 51°10' E 001°38'4 7.3
2018-Jul-06 18:30N 51°12' E 001°42'4 7.2
2018-Jul-06 18:01N 51°15' E 001°46'4 7.8
2018-Jul-06 17:30N 51°19' E 001°48'4 8.2
2018-Jul-06 17:01N 51°22' E 001°51'4 8.6
2018-Jul-06 16:31N 51°26' E 001°55'5 9.7
2018-Jul-06 16:00N 51°30' E 001°60'510.0
2018-Jul-06 15:31N 51°33' E 002°05'510.4
2018-Jul-06 15:00N 51°38' E 002°10'510.1
2018-Jul-06 14:31N 51°41' E 002°15'510.5
2018-Jul-06 14:00N 51°45' E 002°21'610.6
2018-Jul-06 13:29N 51°49' E 002°27'610.5
2018-Jul-06 12:56N 51°54' E 002°34'510.2
2018-Jul-06 12:29N 51°57' E 002°39'5 9.9
2018-Jul-06 12:00N 52°01' E 002°44'5 9.6
2018-Jul-06 11:30N 52°04' E 002°49'9 9.0
2018-Jul-06 10:31N 52°11' E 002°59'1 8.6
2018-Jul-06 10:22N 52°12' E 003°00'3 8.5
2018-Jul-06 10:00N 52°14' E 003°04'4 8.3
2018-Jul-06 09:30N 52°18' E 003°07'4 8.1
2018-Jul-06 09:00N 52°21' E 003°11'4 7.9
2018-Jul-06 08:29N 52°24' E 003°15'4 7.8
2018-Jul-06 07:56N 52°28' E 003°19'4 7.7
2018-Jul-06 07:28N 52°31' E 003°22'4 7.8
2018-Jul-06 07:00N 52°34' E 003°25'4 8.0
2018-Jul-06 06:29N 52°37' E 003°30'5 8.4
2018-Jul-06 05:53N 52°41' E 003°35'3 8.8
2018-Jul-06 05:29N 52°44' E 003°38'5 9.2
2018-Jul-06 04:57N 52°48' E 003°43'5 9.6
2018-Jul-06 04:25N 52°52' E 003°49'5 9.8
2018-Jul-06 03:58N 52°55' E 003°53'5 9.8
2018-Jul-06 03:30N 52°58' E 003°59'7 9.9
2018-Jul-06 02:45N 53°03' E 004°08'310.1
2018-Jul-06 02:30N 53°04' E 004°12'5 9.9
2018-Jul-06 01:57N 53°08' E 004°19'4 9.3
2018-Jul-06 01:30N 53°11' E 004°23'5 9.3
2018-Jul-06 01:00N 53°15' E 004°26'  
Track history (hours):
 
Tides and Currents Weather Stations Pressure Air Temp Water Temp Dewpoint Dewpoint Depression Visibility Wind Speed Wind Dir Waves Ship Positions

Magdalena

Last reported at 2018-Jul-15 16:51 UTC. Time now 2018-Jul-15 21:04 UTC.
Position N 38°40' W 009°04'.

Length 88 m; draft 4.8 m.

Type: Cargo ship. MMSI: 304682000.

Date/timePositionNaut miles runAvg speedWind from/ knotsBaromVisibWave heightAir tempDewpointWater temp
2018-Jul-15 16:51N 38°40' W 009°04'0 0.0
2018-Jul-15 14:21N 38°40' W 009°04'0 0.0
2018-Jul-15 13:35N 38°40' W 009°04'0 0.3
2018-Jul-15 13:28N 38°40' W 009°04'2 5.0
2018-Jul-15 13:00N 38°41' W 009°07'510.0
2018-Jul-15 12:30N 38°41' W 009°14'5 9.5
2018-Jul-15 12:00N 38°40' W 009°19'4 8.1
2018-Jul-15 11:30N 38°37' W 009°23'3 6.7
2018-Jul-15 11:00N 38°40' W 009°25'0 0.2
2018-Jul-15 10:25N 38°40' W 009°24'0 0.0
2018-Jul-15 09:58N 38°40' W 009°25'0 0.0
2018-Jul-15 08:55N 38°40' W 009°24'0 0.0
2018-Jul-15 08:25N 38°40' W 009°24'0 0.0
2018-Jul-15 07:49N 38°40' W 009°24'0 0.1
2018-Jul-15 07:07N 38°40' W 009°24'0 0.0
2018-Jul-15 06:52N 38°40' W 009°24'0 0.0
2018-Jul-15 06:22N 38°40' W 009°24'0 0.0
2018-Jul-15 05:58N 38°40' W 009°24'0 0.0
2018-Jul-15 05:25N 38°40' W 009°24'0 0.0
2018-Jul-15 04:58N 38°40' W 009°24'0 0.0
2018-Jul-15 04:28N 38°40' W 009°24'0 0.0
2018-Jul-15 03:58N 38°40' W 009°24'0 0.0
2018-Jul-15 03:16N 38°40' W 009°24'0 0.0
2018-Jul-15 02:52N 38°40' W 009°24'0 0.0
2018-Jul-15 00:55N 38°40' W 009°24'0 0.1
2018-Jul-15 00:19N 38°40' W 009°24'0 0.0
2018-Jul-14 23:49N 38°40' W 009°24'0 0.0
2018-Jul-14 23:22N 38°40' W 009°24'0 0.0
2018-Jul-14 21:24N 38°40' W 009°25'0 0.0
2018-Jul-14 20:57N 38°40' W 009°25'0 0.1
2018-Jul-14 20:30N 38°40' W 009°25'0 0.0
2018-Jul-14 19:48N 38°40' W 009°25'0 0.1
2018-Jul-14 19:30N 38°40' W 009°25'0 0.1
2018-Jul-14 19:00N 38°40' W 009°25'0 0.1
2018-Jul-14 18:30N 38°40' W 009°24'0 0.1
2018-Jul-14 18:00N 38°40' W 009°24'0 0.0
2018-Jul-14 17:21N 38°40' W 009°24'0 0.0
2018-Jul-14 16:54N 38°40' W 009°24'0 0.0
2018-Jul-14 16:21N 38°40' W 009°24'0 0.0
2018-Jul-14 15:51N 38°40' W 009°24'0 0.0
2018-Jul-14 14:33N 38°40' W 009°24'0 0.0
2018-Jul-14 14:06N 38°40' W 009°24'0 0.0
2018-Jul-14 13:21N 38°40' W 009°24'0 0.0
2018-Jul-14 13:00N 38°40' W 009°25'0 0.0
2018-Jul-14 12:30N 38°40' W 009°25'0 0.0
2018-Jul-14 12:00N 38°40' W 009°25'0 0.1
2018-Jul-14 11:27N 38°40' W 009°24'0 0.0
2018-Jul-14 10:03N 38°40' W 009°24'0 0.1
2018-Jul-14 10:00N 38°40' W 009°25'0 0.1
2018-Jul-14 09:24N 38°40' W 009°25'0 0.0
2018-Jul-14 08:57N 38°40' W 009°25'0 0.1
2018-Jul-14 08:21N 38°40' W 009°25'0 0.0
2018-Jul-14 08:00N 38°40' W 009°25'0 0.0
2018-Jul-14 07:27N 38°40' W 009°25'0 0.0
2018-Jul-14 07:00N 38°40' W 009°25'0 0.1
2018-Jul-14 06:30N 38°40' W 009°25'0 0.1
2018-Jul-14 05:54N 38°40' W 009°24'0 0.0
2018-Jul-14 04:54N 38°40' W 009°24'0 0.0
2018-Jul-14 04:15N 38°40' W 009°24'0 0.0
2018-Jul-14 02:54N 38°40' W 009°24'0 0.0
2018-Jul-14 01:45N 38°40' W 009°24'0 0.0
2018-Jul-14 00:27N 38°40' W 009°24'0 0.0
2018-Jul-13 23:57N 38°40' W 009°25'0 0.1
2018-Jul-13 23:30N 38°40' W 009°24'0 0.0
2018-Jul-13 21:00N 38°40' W 009°25'0 0.0
2018-Jul-13 20:30N 38°40' W 009°25'0 0.1
2018-Jul-13 20:00N 38°40' W 009°25'0 0.1
2018-Jul-13 19:24N 38°40' W 009°25'0 0.1
2018-Jul-13 19:00N 38°40' W 009°24'0 0.0
2018-Jul-13 18:30N 38°40' W 009°24'0 0.0
2018-Jul-13 17:59N 38°40' W 009°24'0 0.0
2018-Jul-13 17:29N 38°40' W 009°24'0 0.0
2018-Jul-13 16:59N 38°40' W 009°24'0 0.0
2018-Jul-13 16:26N 38°40' W 009°24'0 0.0
2018-Jul-13 15:56N 38°40' W 009°24'0 0.0
2018-Jul-13 15:14N 38°40' W 009°24'0 0.0
2018-Jul-13 14:59N 38°40' W 009°24'0 0.0
2018-Jul-13 14:26N 38°40' W 009°24'0 0.0
2018-Jul-13 13:23N 38°40' W 009°24'0 0.0
2018-Jul-13 12:56N 38°40' W 009°24'0 0.0
2018-Jul-13 12:26N 38°40' W 009°24'0 0.0
2018-Jul-13 11:38N 38°40' W 009°24'0 0.1
2018-Jul-13 11:17N 38°40' W 009°24'0 0.0
2018-Jul-13 10:53N 38°40' W 009°24'0 0.0
2018-Jul-13 10:08N 38°40' W 009°24'0 0.1
2018-Jul-13 09:56N 38°40' W 009°24'0 0.1
2018-Jul-13 08:35N 38°40' W 009°25'0 0.1
2018-Jul-13 08:29N 38°40' W 009°25'0 0.1
2018-Jul-13 07:59N 38°40' W 009°25'0 0.1
2018-Jul-13 07:29N 38°40' W 009°25'0 0.0
2018-Jul-13 06:59N 38°40' W 009°25'0 0.1
2018-Jul-13 06:29N 38°40' W 009°25'0 0.0
2018-Jul-13 05:59N 38°40' W 009°24'0 0.0
2018-Jul-13 05:29N 38°40' W 009°24'0 0.1
2018-Jul-13 04:59N 38°40' W 009°24'0 0.0
2018-Jul-13 04:29N 38°40' W 009°24'0 0.0
2018-Jul-13 03:59N 38°40' W 009°24'0 0.0
2018-Jul-13 03:23N 38°40' W 009°24'0 0.0
2018-Jul-13 02:56N 38°40' W 009°24'0 0.0
2018-Jul-13 02:14N 38°40' W 009°24'0 0.0
2018-Jul-13 01:59N 38°40' W 009°24'0 0.0
2018-Jul-13 01:29N 38°40' W 009°24'0 0.0
2018-Jul-13 00:59N 38°40' W 009°24'0 0.0
2018-Jul-13 00:17N 38°40' W 009°24'0 0.0
2018-Jul-12 23:56N 38°40' W 009°24'0 0.0
2018-Jul-12 23:26N 38°40' W 009°24'0 0.1
2018-Jul-12 22:44N 38°40' W 009°24'0 0.0
2018-Jul-12 22:29N 38°40' W 009°24'0 0.0
2018-Jul-12 21:53N 38°40' W 009°24'0 0.1
2018-Jul-12 21:29N 38°40' W 009°24'0 0.1
2018-Jul-12 20:59N 38°40' W 009°24'0 0.0
2018-Jul-12 20:29N 38°40' W 009°24'0 0.0
2018-Jul-12 19:59N 38°40' W 009°24'0 0.1
2018-Jul-12 19:29N 38°40' W 009°25'0 0.0
2018-Jul-12 18:53N 38°40' W 009°25'0 0.0
2018-Jul-12 18:29N 38°40' W 009°25'0 0.0
2018-Jul-12 17:59N 38°40' W 009°25'0 0.0
2018-Jul-12 17:29N 38°40' W 009°25'0 0.0
2018-Jul-12 16:59N 38°40' W 009°25'0 0.0
2018-Jul-12 16:29N 38°40' W 009°25'0 0.0
2018-Jul-12 15:59N 38°40' W 009°24'0 0.1
2018-Jul-12 15:29N 38°40' W 009°24'0 0.0
2018-Jul-12 14:59N 38°40' W 009°24'0 0.1
2018-Jul-12 14:28N 38°40' W 009°24'0 0.1
2018-Jul-12 13:58N 38°40' W 009°24'0 0.0
2018-Jul-12 13:25N 38°40' W 009°24'0 0.0
2018-Jul-12 12:58N 38°40' W 009°24'0 0.0
2018-Jul-12 11:19N 38°40' W 009°25'0 0.1
2018-Jul-12 10:49N 38°40' W 009°25'0 0.0
2018-Jul-12 09:19N 38°40' W 009°24'0 0.1
2018-Jul-12 08:55N 38°40' W 009°24'0 0.0
2018-Jul-12 08:28N 38°40' W 009°24'0 0.2
2018-Jul-12 07:58N 38°40' W 009°25'0 0.0
2018-Jul-12 07:28N 38°40' W 009°25'0 0.0
2018-Jul-12 06:55N 38°40' W 009°25'0 0.0
2018-Jul-12 06:28N 38°40' W 009°25'0 0.0
2018-Jul-12 05:58N 38°40' W 009°25'0 0.0
2018-Jul-12 05:28N 38°40' W 009°25'0 0.0
2018-Jul-12 04:58N 38°40' W 009°25'0 0.1
2018-Jul-12 04:25N 38°40' W 009°25'0 0.0
2018-Jul-12 03:55N 38°40' W 009°25'0 0.0
2018-Jul-12 03:28N 38°40' W 009°25'0 0.0
2018-Jul-12 02:58N 38°40' W 009°24'0 0.1
2018-Jul-12 02:28N 38°40' W 009°24'0 0.0
2018-Jul-12 01:58N 38°40' W 009°24'0 0.0
2018-Jul-12 01:28N 38°40' W 009°24'0 0.0
2018-Jul-12 00:55N 38°40' W 009°24'0 0.1
2018-Jul-12 00:28N 38°40' W 009°24'0 0.0
2018-Jul-11 23:58N 38°40' W 009°24'0 0.0
2018-Jul-11 23:28N 38°40' W 009°24'0 0.0
2018-Jul-11 22:58N 38°40' W 009°24'0 0.0
2018-Jul-11 22:28N 38°40' W 009°24'0 0.0
2018-Jul-11 21:58N 38°40' W 009°24'0 0.0
2018-Jul-11 21:28N 38°40' W 009°24'0 0.0
2018-Jul-11 20:55N 38°40' W 009°24'0 0.0
2018-Jul-11 20:25N 38°40' W 009°24'0 0.1
2018-Jul-11 19:58N 38°40' W 009°24'0 0.1
2018-Jul-11 19:28N 38°40' W 009°25'0 0.0
2018-Jul-11 18:58N 38°40' W 009°25'0 0.0
2018-Jul-11 18:19N 38°40' W 009°25'0 0.0
2018-Jul-11 17:58N 38°40' W 009°25'0 0.0
2018-Jul-11 17:25N 38°40' W 009°25'0 0.0
2018-Jul-11 16:58N 38°40' W 009°25'0 0.0
2018-Jul-11 16:28N 38°40' W 009°25'0 0.0
2018-Jul-11 15:58N 38°40' W 009°24'0 0.1
2018-Jul-11 15:28N 38°40' W 009°24'0 0.0
2018-Jul-11 14:52N 38°40' W 009°24'0 0.0
2018-Jul-11 14:28N 38°40' W 009°24'0 0.2
2018-Jul-11 14:01N 38°40' W 009°25'1 2.4
2018-Jul-11 13:30N 38°40' W 009°26'4 8.6
2018-Jul-11 13:00N 38°39' W 009°31'4 8.6
2018-Jul-11 12:30N 38°37' W 009°37'4 8.4
2018-Jul-11 12:01N 38°36' W 009°42'4 8.2
2018-Jul-11 11:30N 38°35' W 009°47'4 8.2
2018-Jul-11 11:00N 38°35' W 009°52'4 8.2
2018-Jul-11 10:31N 38°35' W 009°57'4 8.3
2018-Jul-11 09:59N 38°35' W 010°03'4 9.1
2018-Jul-11 09:30N 38°39' W 010°04'5 9.1
2018-Jul-11 09:00N 38°44' W 010°05'4 8.9
2018-Jul-11 08:31N 38°48' W 010°05'4 8.9
2018-Jul-11 08:01N 38°52' W 010°06'4 8.4
2018-Jul-11 07:30N 38°57' W 010°06'4 8.5
2018-Jul-11 07:01N 39°01' W 010°05'5 9.3
2018-Jul-11 06:31N 39°06' W 010°05'5 9.3
2018-Jul-11 06:00N 39°10' W 010°05'5 9.1
2018-Jul-11 05:30N 39°15' W 010°05'4 9.0
2018-Jul-11 05:00N 39°19' W 010°05'5 8.6
2018-Jul-11 04:28N 39°24' W 010°06'4 8.9
2018-Jul-11 04:00N 39°28' W 010°06'5 8.9
2018-Jul-11 03:28N 39°33' W 010°05'4 9.0
2018-Jul-11 02:59N 39°37' W 010°05'9 9.1
2018-Jul-11 02:01N 39°46' W 010°05'5 9.1
2018-Jul-11 01:30N 39°51' W 010°05'4 8.9
2018-Jul-11 01:00N 39°55' W 010°05'4 8.7
2018-Jul-11 00:30N 39°59' W 010°05'8 8.9
2018-Jul-10 23:36N 40°07' W 010°05'1 8.7
2018-Jul-10 23:31N 40°08' W 010°05'4 8.6
2018-Jul-10 23:00N 40°13' W 010°05'4 8.7
2018-Jul-10 22:31N 40°17' W 010°05'5 8.9
2018-Jul-10 22:00N 40°21' W 010°05'  
2018-Jul-08 09:32N 48°39' W 006°01'0 8.0
2018-Jul-08 09:31N 48°40' W 006°00'5 8.1
2018-Jul-08 08:54N 48°44' W 005°57'3 8.7
2018-Jul-08 08:30N 48°47' W 005°55'6 8.5
2018-Jul-08 07:51N 48°52' W 005°51'4 8.8
2018-Jul-08 07:22N 48°55' W 005°46'4 9.3
2018-Jul-08 06:54N 48°57' W 005°41'4 9.2
2018-Jul-08 06:30N 48°59' W 005°36'5 9.5
2018-Jul-08 06:01N 49°02' W 005°30'5 9.7
2018-Jul-08 05:31N 49°04' W 005°24'6 9.6
2018-Jul-08 04:53N 49°08' W 005°16'4 9.6
2018-Jul-08 04:25N 49°10' W 005°11'4 9.5
2018-Jul-08 04:00N 49°13' W 005°06'78 8.9
2018-Jul-07 19:09N 49°59' W 003°28'2 9.5
2018-Jul-07 18:55N 49°59' W 003°24'4 9.4
2018-Jul-07 18:29N 49°59' W 003°18'5 9.2
2018-Jul-07 17:58N 49°60' W 003°11'4 8.9
2018-Jul-07 17:30N 49°60' W 003°04'4 8.9
2018-Jul-07 17:00N 49°60' W 002°57'4 8.0
2018-Jul-07 16:27N 50°02' W 002°51'22 7.6
2018-Jul-07 13:34N 50°07' W 002°18'1 7.1
2018-Jul-07 13:29N 50°07' W 002°17'6 7.3
2018-Jul-07 12:42N 50°09' W 002°09'11 7.9
2018-Jul-07 11:16N 50°12' W 001°51'5 8.9
2018-Jul-07 10:43N 50°13' W 001°44'5 9.5
2018-Jul-07 10:14N 50°14' W 001°37'2 9.8
2018-Jul-07 09:59N 50°15' W 001°34'510.2
2018-Jul-07 09:31N 50°16' W 001°26'510.6
2018-Jul-07 09:00N 50°18' W 001°18'510.9
2018-Jul-07 08:30N 50°19' W 001°10'711.3
2018-Jul-07 07:53N 50°21' W 000°60'511.3
2018-Jul-07 07:29N 50°22' W 000°53'510.6
2018-Jul-07 06:58N 50°24' W 000°45'23 9.3
2018-Jul-07 04:29N 50°30' W 000°10'4 8.1
2018-Jul-07 04:00N 50°31' W 000°04'19 7.7
2018-Jul-07 01:32N 50°37' E 000°25'1 7.9
2018-Jul-07 01:27N 50°37' E 000°26'4 8.3
2018-Jul-07 01:00N 50°38' E 000°31'4 8.7
2018-Jul-07 00:31N 50°40' E 000°37'5 9.3
2018-Jul-07 00:01N 50°43' E 000°43'5 9.7
2018-Jul-06 23:31N 50°45' E 000°50'5 9.9
2018-Jul-06 22:59N 50°48' E 000°56'16 9.6
2018-Jul-06 21:17N 50°59' E 001°17'3 9.0
2018-Jul-06 20:58N 51°00' E 001°20'6 8.6
2018-Jul-06 20:19N 51°04' E 001°27'2 5.5
2018-Jul-06 19:59N 51°05' E 001°29'4 7.4
2018-Jul-06 19:30N 51°08' E 001°33'4 7.4
2018-Jul-06 19:00N 51°10' E 001°38'4 7.3
2018-Jul-06 18:30N 51°12' E 001°42'4 7.2
2018-Jul-06 18:01N 51°15' E 001°46'4 7.8
2018-Jul-06 17:30N 51°19' E 001°48'4 8.2
2018-Jul-06 17:01N 51°22' E 001°51'4 8.6
2018-Jul-06 16:31N 51°26' E 001°55'5 9.7
2018-Jul-06 16:00N 51°30' E 001°60'510.0
2018-Jul-06 15:31N 51°33' E 002°05'510.4
2018-Jul-06 15:00N 51°38' E 002°10'510.1
2018-Jul-06 14:31N 51°41' E 002°15'510.5
2018-Jul-06 14:00N 51°45' E 002°21'610.6
2018-Jul-06 13:29N 51°49' E 002°27'610.5
2018-Jul-06 12:56N 51°54' E 002°34'510.2
2018-Jul-06 12:29N 51°57' E 002°39'5 9.9
2018-Jul-06 12:00N 52°01' E 002°44'5 9.6
2018-Jul-06 11:30N 52°04' E 002°49'9 9.0
2018-Jul-06 10:31N 52°11' E 002°59'1 8.6
2018-Jul-06 10:22N 52°12' E 003°00'3 8.5
2018-Jul-06 10:00N 52°14' E 003°04'4 8.3
2018-Jul-06 09:30N 52°18' E 003°07'4 8.1
2018-Jul-06 09:00N 52°21' E 003°11'4 7.9
2018-Jul-06 08:29N 52°24' E 003°15'4 7.8
2018-Jul-06 07:56N 52°28' E 003°19'4 7.7
2018-Jul-06 07:28N 52°31' E 003°22'4 7.8
2018-Jul-06 07:00N 52°34' E 003°25'4 8.0
2018-Jul-06 06:29N 52°37' E 003°30'5 8.4
2018-Jul-06 05:53N 52°41' E 003°35'3 8.8
2018-Jul-06 05:29N 52°44' E 003°38'5 9.2
2018-Jul-06 04:57N 52°48' E 003°43'5 9.6
2018-Jul-06 04:25N 52°52' E 003°49'5 9.8
2018-Jul-06 03:58N 52°55' E 003°53'5 9.8
2018-Jul-06 03:30N 52°58' E 003°59'7 9.9
2018-Jul-06 02:45N 53°03' E 004°08'310.1
2018-Jul-06 02:30N 53°04' E 004°12'5 9.9
2018-Jul-06 01:57N 53°08' E 004°19'4 9.3
2018-Jul-06 01:30N 53°11' E 004°23'5 9.3
2018-Jul-06 01:00N 53°15' E 004°26'  

Dump ship's entire track history